createdAt,value
2023-05-11T00:01:46.118Z,83.40
2023-05-11T00:04:46.842Z,83.40
2023-05-11T00:07:45.385Z,83.40
2023-05-11T00:10:47.795Z,83.29
2023-05-11T00:13:36.876Z,83.29
2023-05-11T00:15:05.591Z,83.40
2023-05-11T00:22:03.993Z,83.60
2023-05-11T00:24:37.668Z,83.60
2023-05-11T00:26:07.501Z,83.70
2023-05-11T00:30:43.946Z,83.80
2023-05-11T00:34:36.909Z,84.14
2023-05-11T00:41:16.977Z,84.34
2023-05-11T00:44:53.801Z,84.34
2023-05-11T00:46:42.214Z,84.25
2023-05-11T00:50:43.244Z,84.25
2023-05-11T00:53:13.112Z,84.25
2023-05-11T00:56:43.775Z,84.25
2023-05-11T00:58:13.391Z,84.14
2023-05-11T01:00:40.026Z,83.64
2023-05-11T01:04:01.518Z,83.47
2023-05-11T01:14:01.314Z,82.36
2023-05-11T01:17:18.835Z,82.16
2023-05-11T01:19:08.212Z,82.06
2023-05-11T01:22:30.611Z,81.96
2023-05-11T01:30:24.869Z,81.96
2023-05-11T01:32:22.826Z,81.90
2023-05-11T01:38:44.830Z,81.99
2023-05-11T01:41:02.625Z,81.90
2023-05-11T01:48:15.918Z,81.79
2023-05-11T01:53:33.155Z,82.10
2023-05-11T01:56:00.045Z,82.20
2023-05-11T01:58:01.628Z,82.30
2023-05-11T02:01:32.007Z,82.30
2023-05-11T02:04:01.238Z,82.30
2023-05-11T02:10:53.409Z,82.30
2023-05-11T02:13:41.187Z,82.30
2023-05-11T02:15:40.013Z,82.40
2023-05-11T02:34:39.288Z,83.01
2023-05-11T02:39:08.103Z,83.01
2023-05-11T02:41:55.659Z,82.90
2023-05-11T02:43:54.053Z,82.90
2023-05-11T02:45:24.658Z,82.81
2023-05-11T02:48:44.051Z,82.90
2023-05-11T02:55:27.623Z,83.15
2023-05-11T03:00:13.108Z,83.21
2023-05-11T03:05:50.537Z,83.11
2023-05-11T03:07:54.717Z,83.11
2023-05-11T03:10:13.350Z,83.11
2023-05-11T03:12:46.470Z,83.31
2023-05-11T03:20:12.885Z,83.65
2023-05-11T03:21:44.537Z,83.61
2023-05-11T03:26:19.570Z,84.02
2023-05-11T03:28:16.660Z,84.56
2023-05-11T03:37:00.849Z,85.44
2023-05-11T03:40:49.518Z,86.19
2023-05-11T03:47:06.859Z,87.20
2023-05-11T03:48:35.753Z,87.20
2023-05-11T03:51:13.153Z,87.40
2023-05-11T03:58:48.468Z,88.62
2023-05-11T04:00:18.126Z,88.92
2023-05-11T04:03:43.746Z,88.82
2023-05-11T04:09:24.784Z,88.56
2023-05-11T04:12:10.814Z,88.56
2023-05-11T04:16:09.599Z,88.86
2023-05-11T04:19:36.571Z,89.57
2023-05-11T04:22:02.624Z,89.77
2023-05-11T04:23:02.600Z,89.87
2023-05-11T04:24:02.578Z,90.18
2023-05-11T04:25:02.600Z,90.02
2023-05-11T04:31:26.786Z,89.72
2023-05-11T04:35:06.631Z,89.51
2023-05-11T04:38:58.130Z,88.80
2023-05-11T04:43:56.755Z,88.80
2023-05-11T04:46:24.858Z,88.90
2023-05-11T04:53:14.283Z,89.21
2023-05-11T04:55:16.367Z,89.31
2023-05-11T04:56:45.272Z,89.41
2023-05-11T04:58:44.354Z,89.41
2023-05-11T05:00:49.051Z,89.31
2023-05-11T05:02:17.910Z,89.11
2023-05-11T05:04:17.995Z,88.96
2023-05-11T05:06:16.685Z,89.06
2023-05-11T05:08:06.643Z,89.06
2023-05-11T05:09:16.535Z,89.01
2023-05-11T05:11:37.343Z,88.90
2023-05-11T05:13:07.279Z,88.86
2023-05-11T05:14:07.297Z,88.76
2023-05-11T05:15:07.502Z,88.86
2023-05-11T05:18:06.089Z,89.17
2023-05-11T05:21:13.596Z,88.96
2023-05-11T05:23:12.487Z,89.06
2023-05-11T05:26:30.626Z,88.86
2023-05-11T05:28:28.520Z,88.76
2023-05-11T05:32:09.877Z,88.76
2023-05-11T05:37:01.449Z,88.92
2023-05-11T05:41:16.003Z,89.23
2023-05-11T05:43:09.677Z,89.18
2023-05-11T05:44:36.723Z,89.18
2023-05-11T05:46:08.618Z,89.18
2023-05-11T05:48:06.550Z,89.18
2023-05-11T05:50:25.283Z,88.98
2023-05-11T05:51:54.102Z,88.74
2023-05-11T05:53:54.908Z,88.43
2023-05-11T05:59:21.353Z,88.23
2023-05-11T06:01:21.165Z,88.02
2023-05-11T06:03:53.137Z,87.66
2023-05-11T06:05:39.801Z,87.46
2023-05-11T06:10:37.615Z,87.16
2023-05-11T06:13:08.408Z,86.96
2023-05-11T06:14:37.205Z,86.61
2023-05-11T06:17:11.153Z,86.61
2023-05-11T06:19:39.914Z,87.02
2023-05-11T06:22:31.460Z,85.96
2023-05-11T06:24:58.368Z,85.66
2023-05-11T06:29:26.602Z,85.42
2023-05-11T06:31:52.413Z,85.22
2023-05-11T06:34:11.135Z,84.87
2023-05-11T06:36:30.829Z,83.96
2023-05-11T06:38:00.732Z,84.11
2023-05-11T06:40:28.999Z,83.09
2023-05-11T06:43:27.446Z,83.50
2023-05-11T06:44:59.320Z,84.06
2023-05-11T06:46:46.804Z,83.96
2023-05-11T06:48:16.833Z,83.26
2023-05-11T06:49:46.768Z,83.01
2023-05-11T06:51:14.681Z,82.81
2023-05-11T06:54:31.413Z,82.41
2023-05-11T06:56:00.351Z,82.81
2023-05-11T06:57:29.235Z,81.70
2023-05-11T06:58:58.112Z,81.40
2023-05-11T07:00:26.979Z,81.13
2023-05-11T07:03:16.994Z,81.20
2023-05-11T07:04:47.150Z,81.50
2023-05-11T07:06:12.887Z,81.46
2023-05-11T07:11:56.755Z,80.15
2023-05-11T07:15:57.322Z,80.76
2023-05-11T07:18:48.307Z,80.85
2023-05-11T07:20:21.251Z,80.35
2023-05-11T07:22:36.721Z,80.82
2023-05-11T07:24:06.983Z,80.31
2023-05-11T07:26:54.732Z,80.21
2023-05-11T07:28:23.690Z,80.92
2023-05-11T07:29:53.088Z,80.92
2023-05-11T07:32:13.200Z,80.31
2023-05-11T07:38:23.649Z,81.12
2023-05-11T07:47:15.573Z,79.04
2023-05-11T07:51:15.527Z,79.74
2023-05-11T07:53:32.798Z,79.85
2023-05-11T07:55:23.486Z,80.05
2023-05-11T07:56:52.362Z,79.85
2023-05-11T08:00:16.003Z,80.41
2023-05-11T08:02:14.056Z,80.11
2023-05-11T08:04:01.161Z,80.07
2023-05-11T08:06:49.148Z,78.92
2023-05-11T08:12:39.461Z,76.10
2023-05-11T08:15:15.174Z,76.97
2023-05-11T08:16:43.079Z,77.38
2023-05-11T08:18:13.800Z,76.71
2023-05-11T08:21:55.080Z,79.19
2023-05-11T08:23:16.070Z,79.09
2023-05-11T08:23:55.032Z,78.75
2023-05-11T08:26:44.620Z,78.91
2023-05-11T08:28:15.532Z,76.54
2023-05-11T08:30:06.262Z,75.29
2023-05-11T08:31:36.270Z,75.09
2023-05-11T08:35:47.449Z,76.56
2023-05-11T08:39:58.523Z,72.64
2023-05-11T08:45:22.901Z,73.68
2023-05-11T08:48:59.817Z,73.38
2023-05-11T08:55:20.457Z,75.09
2023-05-11T08:58:07.986Z,73.95
2023-05-11T09:02:32.618Z,74.15
2023-05-11T09:14:44.874Z,71.33
2023-05-11T09:18:44.828Z,71.09
2023-05-11T09:21:33.780Z,70.66
2023-05-11T09:25:25.029Z,69.53
2023-05-11T09:26:54.344Z,69.22
2023-05-11T09:28:25.549Z,69.69
2023-05-11T09:29:52.367Z,68.79
2023-05-11T09:31:23.037Z,67.85
2023-05-11T09:33:42.161Z,66.28
2023-05-11T09:35:40.512Z,68.99
2023-05-11T09:46:38.235Z,68.05
2023-05-11T09:48:35.463Z,69.06
2023-05-11T09:50:05.417Z,67.32
2023-05-11T09:52:33.315Z,68.19
2023-05-11T09:54:50.898Z,66.19
2023-05-11T09:56:20.082Z,65.39
2023-05-11T09:57:48.691Z,64.59
2023-05-11T09:59:20.552Z,65.09
2023-05-11T10:01:17.448Z,65.42
2023-05-11T10:02:47.871Z,65.62
2023-05-11T10:08:52.706Z,68.65
2023-05-11T10:10:22.683Z,67.18
2023-05-11T10:11:52.519Z,67.79
2023-05-11T10:14:11.157Z,67.99
2023-05-11T10:17:59.758Z,68.69
2023-05-11T10:19:29.517Z,69.39
2023-05-11T10:22:27.475Z,70.32
2023-05-11T10:27:34.251Z,73.20
2023-05-11T10:30:52.564Z,75.21
2023-05-11T10:33:42.567Z,74.51
2023-05-11T10:44:08.393Z,73.00
2023-05-11T10:46:57.499Z,71.66
2023-05-11T10:48:29.317Z,69.66
2023-05-11T10:50:57.060Z,68.15
2023-05-11T10:58:22.578Z,68.32
2023-05-11T10:59:54.450Z,70.43
2023-05-11T11:01:25.410Z,69.39
2023-05-11T11:09:43.067Z,68.76
2023-05-11T11:11:30.015Z,68.46
2023-05-11T11:13:00.682Z,66.93
2023-05-11T11:14:32.593Z,65.33
2023-05-11T11:20:04.934Z,65.25
2023-05-11T11:23:01.540Z,67.13
2023-05-11T11:24:33.420Z,66.02
2023-05-11T11:26:34.395Z,67.72
2023-05-11T11:30:17.160Z,65.72
2023-05-11T11:31:46.093Z,65.92
2023-05-11T11:35:32.882Z,66.59
2023-05-11T11:37:21.680Z,66.12
2023-05-11T11:39:28.806Z,66.32
2023-05-11T11:44:55.637Z,65.42
2023-05-11T11:46:56.611Z,66.42
2023-05-11T11:49:59.716Z,65.85
2023-05-11T11:54:28.336Z,68.08
2023-05-11T12:02:43.244Z,67.15
2023-05-11T12:12:26.401Z,67.42
2023-05-11T12:21:10.036Z,69.59
2023-05-11T12:24:18.902Z,70.32
2023-05-11T12:25:49.891Z,69.53
2023-05-11T12:28:17.617Z,69.92
2023-05-11T12:31:51.717Z,70.63
2023-05-11T12:34:41.196Z,71.23
2023-05-11T12:37:28.811Z,72.37
2023-05-11T12:40:01.794Z,72.47
2023-05-11T12:43:11.165Z,72.67
2023-05-11T12:44:41.165Z,73.37
2023-05-11T12:46:42.338Z,72.97
2023-05-11T12:49:33.297Z,74.61
2023-05-11T12:53:08.626Z,74.61
2023-05-11T12:54:38.503Z,73.84
2023-05-11T12:58:20.682Z,73.18
2023-05-11T13:02:00.927Z,75.26
2023-05-11T13:05:28.019Z,76.73
2023-05-11T13:10:08.572Z,77.07
2023-05-11T13:23:55.112Z,79.44
2023-05-11T13:25:53.357Z,79.64
2023-05-11T13:29:01.865Z,79.58
2023-05-11T13:32:31.548Z,79.74
2023-05-11T13:35:03.933Z,79.38
2023-05-11T13:38:08.040Z,80.08
2023-05-11T13:50:04.421Z,79.62
2023-05-11T13:53:15.050Z,79.52
2023-05-11T13:56:11.732Z,80.12
2023-05-11T13:57:41.900Z,81.03
2023-05-11T14:00:01.643Z,80.43
2023-05-11T14:01:58.188Z,80.63
2023-05-11T14:03:56.177Z,80.22
2023-05-11T14:05:27.942Z,80.02
2023-05-11T14:06:54.932Z,80.02
2023-05-11T14:08:27.539Z,79.72
2023-05-11T14:12:16.237Z,80.39
2023-05-11T14:14:54.258Z,80.29
2023-05-11T14:17:11.381Z,80.32
2023-05-11T14:22:00.963Z,81.03
2023-05-11T14:24:17.683Z,79.62
2023-05-11T14:26:49.505Z,79.36
2023-05-11T14:29:42.515Z,79.46
2023-05-11T14:32:38.164Z,79.46
2023-05-11T14:39:59.865Z,80.36
2023-05-11T14:41:49.531Z,80.57
2023-05-11T14:43:19.430Z,80.36
2023-05-11T14:45:18.474Z,79.96
2023-05-11T14:46:50.229Z,80.16
2023-05-11T14:49:16.049Z,80.66
2023-05-11T14:51:39.620Z,80.77
2023-05-11T14:53:10.630Z,81.17
2023-05-11T14:56:37.718Z,81.07
2023-05-11T14:58:27.429Z,81.07
2023-05-11T14:59:06.426Z,81.03
2023-05-11T15:00:06.391Z,81.23
2023-05-11T15:02:55.411Z,80.93
2023-05-11T15:05:43.067Z,80.97
2023-05-11T15:11:12.177Z,81.53
2023-05-11T15:13:00.154Z,81.43
2023-05-11T15:14:30.143Z,81.03
2023-05-11T15:18:22.130Z,80.52
2023-05-11T15:22:19.575Z,80.43
2023-05-11T15:26:35.536Z,80.02
2023-05-11T15:30:20.440Z,79.72
2023-05-11T15:32:17.558Z,80.32
2023-05-11T15:34:19.174Z,80.12
2023-05-11T15:37:55.379Z,80.32
2023-05-11T15:39:56.155Z,80.52
2023-05-11T15:45:50.991Z,80.12
2023-05-11T15:49:32.784Z,79.62
2023-05-11T15:53:00.772Z,80.73
2023-05-11T15:54:59.684Z,79.86
2023-05-11T15:56:50.865Z,79.86
2023-05-11T15:58:18.793Z,79.76
2023-05-11T16:00:53.247Z,80.26
2023-05-11T16:04:52.341Z,80.97
2023-05-11T16:06:21.310Z,81.37
2023-05-11T16:12:32.300Z,81.77
2023-05-11T16:15:19.203Z,81.57
2023-05-11T16:16:48.474Z,81.57
2023-05-11T16:18:18.248Z,81.67
2023-05-11T16:24:18.001Z,82.07
2023-05-11T16:31:34.335Z,82.28
2023-05-11T16:33:06.208Z,82.48
2023-05-11T16:35:59.800Z,82.98
2023-05-11T16:37:58.865Z,82.78
2023-05-11T16:43:58.736Z,82.98
2023-05-11T16:45:58.285Z,83.08
2023-05-11T16:47:00.193Z,83.18
2023-05-11T16:47:58.996Z,82.78
2023-05-11T16:51:04.648Z,82.78
2023-05-11T16:53:02.610Z,82.78
2023-05-11T16:55:00.546Z,83.48
2023-05-11T17:02:49.112Z,84.23
2023-05-11T17:04:51.633Z,84.43
2023-05-11T17:06:21.384Z,84.53
2023-05-11T17:12:40.895Z,84.63
2023-05-11T17:13:37.447Z,84.53
2023-05-11T17:14:37.182Z,84.63
2023-05-11T17:20:18.931Z,83.14
2023-05-11T17:22:18.595Z,83.64
2023-05-11T17:23:46.578Z,83.84
2023-05-11T17:27:06.939Z,84.25
2023-05-11T17:28:36.330Z,84.59
2023-05-11T17:33:43.278Z,84.75
2023-05-11T17:35:16.281Z,84.75
2023-05-11T17:37:24.237Z,85.25
2023-05-11T17:39:47.838Z,85.05
2023-05-11T17:42:13.281Z,84.65
2023-05-11T17:43:42.111Z,84.65
2023-05-11T17:46:10.861Z,84.29
2023-05-11T17:48:08.735Z,84.79
2023-05-11T17:50:26.772Z,85.10
2023-05-11T17:53:36.122Z,85.50
2023-05-11T17:55:46.723Z,86.00
2023-05-11T18:00:13.248Z,86.15
2023-05-11T18:02:11.873Z,85.94
2023-05-11T18:03:41.097Z,85.90
2023-05-11T18:09:38.523Z,86.15
2023-05-11T18:11:28.621Z,86.25
2023-05-11T18:13:17.900Z,86.25
2023-05-11T18:17:10.993Z,86.25
2023-05-11T18:21:40.628Z,86.55
2023-05-11T18:27:54.557Z,87.19
2023-05-11T18:29:25.480Z,87.36
2023-05-11T18:31:27.372Z,87.26
2023-05-11T18:33:26.283Z,87.15
2023-05-11T18:36:14.972Z,87.36
2023-05-11T18:39:13.370Z,87.26
2023-05-11T18:41:33.776Z,87.15
2023-05-11T18:43:01.087Z,87.26
2023-05-11T18:45:39.135Z,87.40
2023-05-11T18:47:12.259Z,87.60
2023-05-11T18:49:14.249Z,87.60
2023-05-11T18:50:44.129Z,87.60
2023-05-11T18:52:44.105Z,87.70
2023-05-11T18:55:23.835Z,87.70
2023-05-11T18:56:52.721Z,87.70
2023-05-11T19:00:11.513Z,87.70
2023-05-11T19:01:47.910Z,87.70
2023-05-11T19:03:33.022Z,87.70
2023-05-11T19:06:21.157Z,87.90
2023-05-11T19:09:50.716Z,88.21
2023-05-11T19:11:51.823Z,88.45
2023-05-11T19:13:19.063Z,88.55
2023-05-11T19:16:28.480Z,88.96
2023-05-11T19:19:19.118Z,89.06
2023-05-11T19:22:09.343Z,89.26
2023-05-11T19:26:11.207Z,89.06
2023-05-11T19:31:26.290Z,89.20
2023-05-11T19:38:52.392Z,89.00
2023-05-11T19:43:01.165Z,89.20
2023-05-11T19:49:09.927Z,89.30
2023-05-11T19:50:09.864Z,89.45
2023-05-11T19:51:30.867Z,89.34
2023-05-11T19:52:09.950Z,89.24
2023-05-11T19:54:08.424Z,89.24
2023-05-11T19:57:47.391Z,89.24
2023-05-11T20:00:43.470Z,89.45
2023-05-11T20:02:42.264Z,89.34
2023-05-11T20:05:29.342Z,89.45
2023-05-11T20:08:39.640Z,89.54
2023-05-11T20:11:08.453Z,89.65
2023-05-11T20:13:35.113Z,89.65
2023-05-11T20:15:05.485Z,89.69
2023-05-11T20:17:05.068Z,89.99
2023-05-11T20:19:05.139Z,89.89
2023-05-11T20:21:56.173Z,89.89
2023-05-11T20:24:24.876Z,89.99
2023-05-11T20:26:23.707Z,89.89
2023-05-11T20:27:53.782Z,89.89
2023-05-11T20:29:24.604Z,89.89
2023-05-11T20:30:54.733Z,89.99
2023-05-11T20:36:42.945Z,90.20
2023-05-11T20:38:43.403Z,90.30
2023-05-11T20:43:54.714Z,90.30
2023-05-11T20:45:23.187Z,90.30
2023-05-11T20:46:51.899Z,90.30
2023-05-11T20:48:32.385Z,90.20
2023-05-11T20:50:52.913Z,90.60
2023-05-11T20:53:10.203Z,90.50
2023-05-11T20:58:51.060Z,90.44
2023-05-11T21:00:51.118Z,90.54
2023-05-11T21:03:25.189Z,90.44
2023-05-11T21:08:01.719Z,90.44
2023-05-11T21:11:30.100Z,90.44
2023-05-11T21:13:00.996Z,90.54
2023-05-11T21:14:27.886Z,90.34
2023-05-11T21:16:00.995Z,90.34
2023-05-11T21:18:00.344Z,90.44
2023-05-11T21:19:29.234Z,90.44
2023-05-11T21:23:28.000Z,90.64
2023-05-11T21:28:12.456Z,90.75
2023-05-11T21:29:43.121Z,90.75
2023-05-11T21:33:30.620Z,90.95
2023-05-11T21:35:56.170Z,90.75
2023-05-11T21:39:54.194Z,91.05
2023-05-11T21:42:41.109Z,91.05
2023-05-11T21:44:14.938Z,91.15
2023-05-11T21:46:20.809Z,91.05
2023-05-11T21:48:51.038Z,91.15
2023-05-11T21:55:28.805Z,91.25
2023-05-11T21:57:15.663Z,91.15
2023-05-11T21:59:16.601Z,91.05
2023-05-11T22:05:10.889Z,91.50
2023-05-11T22:06:41.702Z,91.50
2023-05-11T22:13:34.140Z,91.50
2023-05-11T22:15:04.820Z,91.60
2023-05-11T22:16:32.245Z,91.50
2023-05-11T22:18:00.811Z,91.80
2023-05-11T22:19:30.321Z,91.60
2023-05-11T22:21:49.288Z,91.39
2023-05-11T22:24:17.059Z,91.90
2023-05-11T22:25:46.977Z,91.70
2023-05-11T22:27:16.982Z,91.70
2023-05-11T22:28:47.200Z,91.80
2023-05-11T22:30:16.131Z,91.70
2023-05-11T22:32:17.895Z,91.80
2023-05-11T22:33:50.620Z,91.70
2023-05-11T22:39:31.881Z,92.25
2023-05-11T22:45:01.104Z,92.45
2023-05-11T22:46:32.013Z,92.40
2023-05-11T22:50:38.647Z,92.40
2023-05-11T22:52:46.848Z,92.40
2023-05-11T22:54:16.486Z,92.49
2023-05-11T22:56:17.359Z,92.40
2023-05-11T23:03:24.369Z,92.94
2023-05-11T23:07:12.277Z,93.05
2023-05-11T23:11:50.927Z,93.35
2023-05-11T23:13:21.108Z,93.35
2023-05-11T23:15:56.209Z,93.15
2023-05-11T23:17:24.320Z,93.15
2023-05-11T23:23:23.773Z,93.45
2023-05-11T23:25:00.560Z,93.55
2023-05-11T23:26:23.385Z,93.35
2023-05-11T23:32:49.759Z,93.45
2023-05-11T23:36:42.457Z,93.45
2023-05-11T23:40:56.042Z,93.55
2023-05-11T23:42:27.422Z,93.55
2023-05-11T23:44:17.145Z,93.70
2023-05-11T23:47:34.740Z,93.90
2023-05-11T23:49:04.530Z,93.65
2023-05-11T23:53:41.583Z,93.90
2023-05-11T23:56:09.962Z,93.90
2023-05-11T23:59:57.599Z,94.10
